sensor_id;sensor_type;location;lat;lon;timestamp;temperature;humidity
46816;DHT22;32787;53.316;8.670;2023-04-01T00:00:52;9.60;95.20
46816;DHT22;32787;53.316;8.670;2023-04-01T00:03:18;9.60;95.20
46816;DHT22;32787;53.316;8.670;2023-04-01T00:05:45;9.60;95.30
46816;DHT22;32787;53.316;8.670;2023-04-01T00:08:11;9.50;95.30
46816;DHT22;32787;53.316;8.670;2023-04-01T00:10:36;9.50;95.30
46816;DHT22;32787;53.316;8.670;2023-04-01T00:13:02;9.40;95.30
46816;DHT22;32787;53.316;8.670;2023-04-01T00:15:28;9.50;95.40
46816;DHT22;32787;53.316;8.670;2023-04-01T00:17:54;9.50;95.30
46816;DHT22;32787;53.316;8.670;2023-04-01T00:20:20;9.50;95.40
46816;DHT22;32787;53.316;8.670;2023-04-01T00:22:46;9.50;95.40
46816;DHT22;32787;53.316;8.670;2023-04-01T00:25:12;9.60;95.40
46816;DHT22;32787;53.316;8.670;2023-04-01T00:27:37;9.50;95.40
46816;DHT22;32787;53.316;8.670;2023-04-01T00:30:04;9.60;95.50
46816;DHT22;32787;53.316;8.670;2023-04-01T00:32:29;9.60;95.40
46816;DHT22;32787;53.316;8.670;2023-04-01T00:34:56;9.60;95.40
46816;DHT22;32787;53.316;8.670;2023-04-01T00:37:24;9.60;95.30
46816;DHT22;32787;53.316;8.670;2023-04-01T00:39:50;9.60;95.30
46816;DHT22;32787;53.316;8.670;2023-04-01T00:42:15;9.70;95.30
46816;DHT22;32787;53.316;8.670;2023-04-01T00:44:44;9.70;95.20
46816;DHT22;32787;53.316;8.670;2023-04-01T00:47:10;9.80;95.20
46816;DHT22;32787;53.316;8.670;2023-04-01T00:49:41;9.60;95.10
46816;DHT22;32787;53.316;8.670;2023-04-01T00:52:08;9.70;95.20
46816;DHT22;32787;53.316;8.670;2023-04-01T00:54:36;9.70;95.10
46816;DHT22;32787;53.316;8.670;2023-04-01T00:57:09;9.70;95.20
46816;DHT22;32787;53.316;8.670;2023-04-01T00:59:45;9.70;95.20
46816;DHT22;32787;53.316;8.670;2023-04-01T01:02:14;9.70;95.20
46816;DHT22;32787;53.316;8.670;2023-04-01T01:04:40;9.60;95.20
46816;DHT22;32787;53.316;8.670;2023-04-01T01:07:39;9.80;95.30
46816;DHT22;32787;53.316;8.670;2023-04-01T01:10:33;9.70;95.20
46816;DHT22;32787;53.316;8.670;2023-04-01T01:13:19;9.80;95.20
46816;DHT22;32787;53.316;8.670;2023-04-01T01:16:04;9.80;95.10
46816;DHT22;32787;53.316;8.670;2023-04-01T01:19:04;9.80;95.10
46816;DHT22;32787;53.316;8.670;2023-04-01T01:27:12;9.60;95.10
46816;DHT22;32787;53.316;8.670;2023-04-01T01:32:55;9.70;95.20
46816;DHT22;32787;53.316;8.670;2023-04-01T01:35:35;9.70;95.10
46816;DHT22;32787;53.316;8.670;2023-04-01T01:38:09;9.70;95.20
46816;DHT22;32787;53.316;8.670;2023-04-01T01:40:36;9.60;95.20
46816;DHT22;32787;53.316;8.670;2023-04-01T01:43:09;9.60;95.20
46816;DHT22;32787;53.316;8.670;2023-04-01T01:45:40;9.80;95.30
46816;DHT22;32787;53.316;8.670;2023-04-01T01:48:10;9.70;95.20
46816;DHT22;32787;53.316;8.670;2023-04-01T01:50:36;9.70;95.20
46816;DHT22;32787;53.316;8.670;2023-04-01T01:53:08;9.60;95.20
46816;DHT22;32787;53.316;8.670;2023-04-01T01:55:37;9.60;95.20
46816;DHT22;32787;53.316;8.670;2023-04-01T02:00:52;9.60;95.30
46816;DHT22;32787;53.316;8.670;2023-04-01T02:03:21;9.70;95.30
46816;DHT22;32787;53.316;8.670;2023-04-01T02:05:49;9.70;95.30
46816;DHT22;32787;53.316;8.670;2023-04-01T02:08:21;9.70;95.30
46816;DHT22;32787;53.316;8.670;2023-04-01T02:11:15;9.60;95.30
46816;DHT22;32787;53.316;8.670;2023-04-01T02:16:23;9.70;95.30
46816;DHT22;32787;53.316;8.670;2023-04-01T02:18:51;9.60;95.40
46816;DHT22;32787;53.316;8.670;2023-04-01T02:21:21;9.70;95.40
46816;DHT22;32787;53.316;8.670;2023-04-01T02:23:48;9.70;95.40
46816;DHT22;32787;53.316;8.670;2023-04-01T02:26:14;9.60;95.40
46816;DHT22;32787;53.316;8.670;2023-04-01T02:28:41;9.70;95.40
46816;DHT22;32787;53.316;8.670;2023-04-01T02:31:12;9.60;95.40
46816;DHT22;32787;53.316;8.670;2023-04-01T02:33:39;9.80;95.40
46816;DHT22;32787;53.316;8.670;2023-04-01T02:36:05;9.70;95.50
46816;DHT22;32787;53.316;8.670;2023-04-01T02:38:31;9.70;95.50
46816;DHT22;32787;53.316;8.670;2023-04-01T02:41:00;9.70;95.50
46816;DHT22;32787;53.316;8.670;2023-04-01T02:43:26;9.60;95.50
46816;DHT22;32787;53.316;8.670;2023-04-01T02:45:53;9.70;95.60
46816;DHT22;32787;53.316;8.670;2023-04-01T02:48:18;9.60;95.60
46816;DHT22;32787;53.316;8.670;2023-04-01T02:50:44;9.70;95.60
46816;DHT22;32787;53.316;8.670;2023-04-01T02:53:10;9.60;95.60
46816;DHT22;32787;53.316;8.670;2023-04-01T02:55:35;9.60;95.60
46816;DHT22;32787;53.316;8.670;2023-04-01T02:58:01;9.70;95.70
46816;DHT22;32787;53.316;8.670;2023-04-01T03:00:27;9.60;95.70
46816;DHT22;32787;53.316;8.670;2023-04-01T03:02:53;9.60;95.60
46816;DHT22;32787;53.316;8.670;2023-04-01T03:05:19;9.70;95.70
46816;DHT22;32787;53.316;8.670;2023-04-01T03:07:46;9.70;95.70
46816;DHT22;32787;53.316;8.670;2023-04-01T03:10:12;9.60;95.70
46816;DHT22;32787;53.316;8.670;2023-04-01T03:12:37;9.70;95.70
46816;DHT22;32787;53.316;8.670;2023-04-01T03:15:04;9.70;95.70
46816;DHT22;32787;53.316;8.670;2023-04-01T03:17:30;9.60;95.70
46816;DHT22;32787;53.316;8.670;2023-04-01T03:19:55;9.60;95.70
46816;DHT22;32787;53.316;8.670;2023-04-01T03:22:21;9.60;95.70
46816;DHT22;32787;53.316;8.670;2023-04-01T03:24:48;9.60;95.70
46816;DHT22;32787;53.316;8.670;2023-04-01T03:27:13;9.70;95.70
46816;DHT22;32787;53.316;8.670;2023-04-01T03:29:39;9.60;95.70
46816;DHT22;32787;53.316;8.670;2023-04-01T03:32:05;9.70;95.70
46816;DHT22;32787;53.316;8.670;2023-04-01T03:34:31;9.60;95.70
46816;DHT22;32787;53.316;8.670;2023-04-01T03:36:57;9.60;95.60
46816;DHT22;32787;53.316;8.670;2023-04-01T03:39:23;9.70;95.60
46816;DHT22;32787;53.316;8.670;2023-04-01T03:41:49;9.70;95.60
46816;DHT22;32787;53.316;8.670;2023-04-01T03:44:15;9.70;95.60
46816;DHT22;32787;53.316;8.670;2023-04-01T03:46:41;9.70;95.60
46816;DHT22;32787;53.316;8.670;2023-04-01T03:49:08;9.70;95.50
46816;DHT22;32787;53.316;8.670;2023-04-01T03:51:37;9.70;95.60
46816;DHT22;32787;53.316;8.670;2023-04-01T03:54:04;9.60;95.50
46816;DHT22;32787;53.316;8.670;2023-04-01T03:56:30;9.60;95.50
46816;DHT22;32787;53.316;8.670;2023-04-01T03:58:55;9.60;95.50
46816;DHT22;32787;53.316;8.670;2023-04-01T04:01:22;9.60;95.60
46816;DHT22;32787;53.316;8.670;2023-04-01T04:03:49;9.60;95.50
46816;DHT22;32787;53.316;8.670;2023-04-01T04:06:16;9.60;95.50
46816;DHT22;32787;53.316;8.670;2023-04-01T04:08:42;9.60;95.60
46816;DHT22;32787;53.316;8.670;2023-04-01T04:11:08;9.60;95.50
46816;DHT22;32787;53.316;8.670;2023-04-01T04:13:34;9.50;95.60
46816;DHT22;32787;53.316;8.670;2023-04-01T04:16:01;9.60;95.60
46816;DHT22;32787;53.316;8.670;2023-04-01T04:18:27;9.60;95.60
46816;DHT22;32787;53.316;8.670;2023-04-01T04:20:53;9.50;95.60
46816;DHT22;32787;53.316;8.670;2023-04-01T04:23:18;9.60;95.60
46816;DHT22;32787;53.316;8.670;2023-04-01T04:25:58;9.60;95.60
46816;DHT22;32787;53.316;8.670;2023-04-01T04:28:25;9.60;95.60
46816;DHT22;32787;53.316;8.670;2023-04-01T04:30:51;9.60;95.60
46816;DHT22;32787;53.316;8.670;2023-04-01T04:33:17;9.60;95.60
46816;DHT22;32787;53.316;8.670;2023-04-01T04:35:42;9.60;95.60
46816;DHT22;32787;53.316;8.670;2023-04-01T04:38:08;9.60;95.60
46816;DHT22;32787;53.316;8.670;2023-04-01T04:40:36;9.60;95.60
46816;DHT22;32787;53.316;8.670;2023-04-01T04:43:03;9.60;95.50
46816;DHT22;32787;53.316;8.670;2023-04-01T04:45:28;9.50;95.50
46816;DHT22;32787;53.316;8.670;2023-04-01T04:47:54;9.50;95.50
46816;DHT22;32787;53.316;8.670;2023-04-01T04:50:20;9.60;95.60
46816;DHT22;32787;53.316;8.670;2023-04-01T04:52:46;9.60;95.50
46816;DHT22;32787;53.316;8.670;2023-04-01T04:55:11;9.60;95.40
46816;DHT22;32787;53.316;8.670;2023-04-01T04:57:37;9.60;95.40
46816;DHT22;32787;53.316;8.670;2023-04-01T05:00:03;9.60;95.40
46816;DHT22;32787;53.316;8.670;2023-04-01T05:02:29;9.50;95.40
46816;DHT22;32787;53.316;8.670;2023-04-01T05:04:55;9.60;95.50
46816;DHT22;32787;53.316;8.670;2023-04-01T05:07:20;9.60;95.50
46816;DHT22;32787;53.316;8.670;2023-04-01T05:09:46;9.50;95.40
46816;DHT22;32787;53.316;8.670;2023-04-01T05:12:12;9.50;95.50
46816;DHT22;32787;53.316;8.670;2023-04-01T05:14:38;9.50;95.40
46816;DHT22;32787;53.316;8.670;2023-04-01T05:17:07;9.50;95.50
46816;DHT22;32787;53.316;8.670;2023-04-01T05:19:33;9.50;95.50
46816;DHT22;32787;53.316;8.670;2023-04-01T05:21:59;9.50;95.50
46816;DHT22;32787;53.316;8.670;2023-04-01T05:24:24;9.50;95.50
46816;DHT22;32787;53.316;8.670;2023-04-01T05:26:50;9.60;95.50
46816;DHT22;32787;53.316;8.670;2023-04-01T05:29:15;9.50;95.40
46816;DHT22;32787;53.316;8.670;2023-04-01T05:31:41;9.50;95.50
46816;DHT22;32787;53.316;8.670;2023-04-01T05:34:07;9.50;95.40
46816;DHT22;32787;53.316;8.670;2023-04-01T05:36:32;9.60;95.40
46816;DHT22;32787;53.316;8.670;2023-04-01T05:38:58;9.60;95.40
46816;DHT22;32787;53.316;8.670;2023-04-01T05:41:23;9.50;95.30
46816;DHT22;32787;53.316;8.670;2023-04-01T05:43:49;9.50;95.30
46816;DHT22;32787;53.316;8.670;2023-04-01T05:46:15;9.50;95.30
46816;DHT22;32787;53.316;8.670;2023-04-01T05:48:40;9.50;95.30
46816;DHT22;32787;53.316;8.670;2023-04-01T05:51:06;9.40;95.30
46816;DHT22;32787;53.316;8.670;2023-04-01T05:53:32;9.50;95.40
46816;DHT22;32787;53.316;8.670;2023-04-01T05:56:02;9.50;95.30
46816;DHT22;32787;53.316;8.670;2023-04-01T05:58:28;9.50;95.30
46816;DHT22;32787;53.316;8.670;2023-04-01T06:01:03;9.50;95.30
46816;DHT22;32787;53.316;8.670;2023-04-01T06:03:30;9.50;95.30
46816;DHT22;32787;53.316;8.670;2023-04-01T06:05:55;9.50;95.30
46816;DHT22;32787;53.316;8.670;2023-04-01T06:08:21;9.50;95.40
46816;DHT22;32787;53.316;8.670;2023-04-01T06:10:53;9.50;95.40
46816;DHT22;32787;53.316;8.670;2023-04-01T06:16:09;9.50;95.40
46816;DHT22;32787;53.316;8.670;2023-04-01T06:19:05;9.60;95.40
46816;DHT22;32787;53.316;8.670;2023-04-01T06:24:46;9.60;95.30
46816;DHT22;32787;53.316;8.670;2023-04-01T06:27:45;9.60;95.30
46816;DHT22;32787;53.316;8.670;2023-04-01T06:46:49;9.60;95.00
46816;DHT22;32787;53.316;8.670;2023-04-01T06:54:42;9.70;95.00
46816;DHT22;32787;53.316;8.670;2023-04-01T06:57:34;9.70;94.90
46816;DHT22;32787;53.316;8.670;2023-04-01T07:00:04;9.60;94.90
46816;DHT22;32787;53.316;8.670;2023-04-01T07:02:34;9.70;95.00
46816;DHT22;32787;53.316;8.670;2023-04-01T07:05:04;9.70;94.90
46816;DHT22;32787;53.316;8.670;2023-04-01T07:10:06;9.70;94.90
46816;DHT22;32787;53.316;8.670;2023-04-01T07:12:58;9.70;94.80
46816;DHT22;32787;53.316;8.670;2023-04-01T07:15:35;9.80;94.90
46816;DHT22;32787;53.316;8.670;2023-04-01T07:18:05;9.90;94.80
46816;DHT22;32787;53.316;8.670;2023-04-01T07:20:36;9.80;94.70
46816;DHT22;32787;53.316;8.670;2023-04-01T07:23:15;9.90;94.70
46816;DHT22;32787;53.316;8.670;2023-04-01T07:25:44;9.80;94.60
46816;DHT22;32787;53.316;8.670;2023-04-01T07:28:13;9.90;94.50
46816;DHT22;32787;53.316;8.670;2023-04-01T07:31:11;9.90;94.40
46816;DHT22;32787;53.316;8.670;2023-04-01T07:36:16;9.90;94.40
46816;DHT22;32787;53.316;8.670;2023-04-01T07:39:10;9.90;94.30
46816;DHT22;32787;53.316;8.670;2023-04-01T07:42:06;9.90;94.30
46816;DHT22;32787;53.316;8.670;2023-04-01T07:47:29;9.90;94.40
46816;DHT22;32787;53.316;8.670;2023-04-01T07:55:50;10.00;94.70
46816;DHT22;32787;53.316;8.670;2023-04-01T07:58:28;10.00;94.60
46816;DHT22;32787;53.316;8.670;2023-04-01T08:09:31;9.90;94.50
46816;DHT22;32787;53.316;8.670;2023-04-01T08:12:35;10.00;94.60
46816;DHT22;32787;53.316;8.670;2023-04-01T08:15:22;10.00;94.50
46816;DHT22;32787;53.316;8.670;2023-04-01T08:20:47;10.00;94.70
46816;DHT22;32787;53.316;8.670;2023-04-01T08:26:06;10.00;94.60
46816;DHT22;32787;53.316;8.670;2023-04-01T08:28:46;10.00;94.70
46816;DHT22;32787;53.316;8.670;2023-04-01T08:31:22;10.10;94.70
46816;DHT22;32787;53.316;8.670;2023-04-01T08:33:49;10.10;94.60
46816;DHT22;32787;53.316;8.670;2023-04-01T08:36:26;9.60;94.00
46816;DHT22;32787;53.316;8.670;2023-04-01T08:39:05;9.40;93.70
46816;DHT22;32787;53.316;8.670;2023-04-01T08:50:05;8.90;94.50
46816;DHT22;32787;53.316;8.670;2023-04-01T08:52:40;8.90;94.60
46816;DHT22;32787;53.316;8.670;2023-04-01T08:55:37;8.90;94.60
46816;DHT22;32787;53.316;8.670;2023-04-01T09:00:55;8.80;94.40
46816;DHT22;32787;53.316;8.670;2023-04-01T09:03:37;8.80;94.20
46816;DHT22;32787;53.316;8.670;2023-04-01T09:09:06;8.70;94.40
46816;DHT22;32787;53.316;8.670;2023-04-01T09:36:43;8.30;93.80
46816;DHT22;32787;53.316;8.670;2023-04-01T09:42:32;8.30;93.80
46816;DHT22;32787;53.316;8.670;2023-04-01T09:45:15;8.20;93.80
46816;DHT22;32787;53.316;8.670;2023-04-01T10:15:40;7.90;93.50
46816;DHT22;32787;53.316;8.670;2023-04-01T10:21:16;7.90;93.60
46816;DHT22;32787;53.316;8.670;2023-04-01T10:54:52;7.60;93.00
46816;DHT22;32787;53.316;8.670;2023-04-01T11:14:42;7.60;92.60
46816;DHT22;32787;53.316;8.670;2023-04-01T11:17:43;7.60;92.80
46816;DHT22;32787;53.316;8.670;2023-04-01T11:20:36;7.60;92.70
46816;DHT22;32787;53.316;8.670;2023-04-01T11:23:19;7.60;92.50
46816;DHT22;32787;53.316;8.670;2023-04-01T11:28:38;7.70;92.60
46816;DHT22;32787;53.316;8.670;2023-04-01T11:37:12;7.70;92.50
46816;DHT22;32787;53.316;8.670;2023-04-01T11:40:09;7.70;92.20
46816;DHT22;32787;53.316;8.670;2023-04-01T11:51:20;7.50;91.30
46816;DHT22;32787;53.316;8.670;2023-04-01T11:56:43;7.60;91.90
46816;DHT22;32787;53.316;8.670;2023-04-01T11:59:38;7.60;92.10
46816;DHT22;32787;53.316;8.670;2023-04-01T12:02:23;7.70;92.60
46816;DHT22;32787;53.316;8.670;2023-04-01T12:05:14;7.70;92.60
46816;DHT22;32787;53.316;8.670;2023-04-01T12:08:04;7.70;92.60
46816;DHT22;32787;53.316;8.670;2023-04-01T12:19:14;7.50;92.10
46816;DHT22;32787;53.316;8.670;2023-04-01T12:24:37;7.50;92.10
46816;DHT22;32787;53.316;8.670;2023-04-01T12:41:20;7.40;92.50
46816;DHT22;32787;53.316;8.670;2023-04-01T12:55:35;7.40;92.30
46816;DHT22;32787;53.316;8.670;2023-04-01T13:06:29;7.40;92.40
46816;DHT22;32787;53.316;8.670;2023-04-01T13:12:31;7.40;92.40
46816;DHT22;32787;53.316;8.670;2023-04-01T13:15:12;7.30;92.20
46816;DHT22;32787;53.316;8.670;2023-04-01T13:20:41;7.30;92.20
46816;DHT22;32787;53.316;8.670;2023-04-01T13:25:49;7.30;92.10
46816;DHT22;32787;53.316;8.670;2023-04-01T13:28:29;7.20;92.60
46816;DHT22;32787;53.316;8.670;2023-04-01T13:31:10;7.20;92.70
46816;DHT22;32787;53.316;8.670;2023-04-01T13:39:47;7.20;92.90
46816;DHT22;32787;53.316;8.670;2023-04-01T13:42:21;7.20;93.00
46816;DHT22;32787;53.316;8.670;2023-04-01T13:44:56;7.10;92.80
46816;DHT22;32787;53.316;8.670;2023-04-01T14:13:00;6.80;92.60
46816;DHT22;32787;53.316;8.670;2023-04-01T14:29:58;6.60;92.10
46816;DHT22;32787;53.316;8.670;2023-04-01T14:38:19;6.50;92.00
46816;DHT22;32787;53.316;8.670;2023-04-01T14:43:22;6.50;92.20
46816;DHT22;32787;53.316;8.670;2023-04-01T14:52:05;6.40;92.30
46816;DHT22;32787;53.316;8.670;2023-04-01T14:54:40;6.30;92.00
46816;DHT22;32787;53.316;8.670;2023-04-01T14:59:48;6.30;92.30
46816;DHT22;32787;53.316;8.670;2023-04-01T15:08:08;6.30;91.70
46816;DHT22;32787;53.316;8.670;2023-04-01T15:21:31;6.30;91.80
46816;DHT22;32787;53.316;8.670;2023-04-01T15:32:39;6.30;91.80
46816;DHT22;32787;53.316;8.670;2023-04-01T15:37:59;6.20;91.10
46816;DHT22;32787;53.316;8.670;2023-04-01T15:43:17;6.30;91.30
46816;DHT22;32787;53.316;8.670;2023-04-01T15:46:09;6.20;91.00
46816;DHT22;32787;53.316;8.670;2023-04-01T15:54:52;6.20;90.90
46816;DHT22;32787;53.316;8.670;2023-04-01T16:11:26;6.10;90.30
46816;DHT22;32787;53.316;8.670;2023-04-01T16:16:45;6.10;89.90
46816;DHT22;32787;53.316;8.670;2023-04-01T16:22:38;6.10;90.50
46816;DHT22;32787;53.316;8.670;2023-04-01T16:29:55;6.00;90.30
46816;DHT22;32787;53.316;8.670;2023-04-01T16:32:51;6.00;90.20
46816;DHT22;32787;53.316;8.670;2023-04-01T16:35:31;6.00;90.40
46816;DHT22;32787;53.316;8.670;2023-04-01T16:43:35;5.90;90.40
46816;DHT22;32787;53.316;8.670;2023-04-01T17:02:14;5.80;90.50
46816;DHT22;32787;53.316;8.670;2023-04-01T17:10:13;5.70;90.50
46816;DHT22;32787;53.316;8.670;2023-04-01T17:16:10;5.70;90.20
46816;DHT22;32787;53.316;8.670;2023-04-01T17:44:34;5.60;90.30
46816;DHT22;32787;53.316;8.670;2023-04-01T17:52:53;5.50;90.30
46816;DHT22;32787;53.316;8.670;2023-04-01T17:55:35;5.50;89.70
46816;DHT22;32787;53.316;8.670;2023-04-01T17:58:17;5.40;90.00
46816;DHT22;32787;53.316;8.670;2023-04-01T18:06:33;5.30;89.80
46816;DHT22;32787;53.316;8.670;2023-04-01T18:14:23;5.30;89.20
46816;DHT22;32787;53.316;8.670;2023-04-01T18:19:52;5.20;89.30
46816;DHT22;32787;53.316;8.670;2023-04-01T18:22:28;5.20;89.30
46816;DHT22;32787;53.316;8.670;2023-04-01T18:27:41;5.20;89.30
46816;DHT22;32787;53.316;8.670;2023-04-01T18:30:17;5.20;89.50
46816;DHT22;32787;53.316;8.670;2023-04-01T18:32:57;5.20;90.00
46816;DHT22;32787;53.316;8.670;2023-04-01T18:40:45;5.20;89.60
46816;DHT22;32787;53.316;8.670;2023-04-01T18:51:56;5.00;89.30
46816;DHT22;32787;53.316;8.670;2023-04-01T18:54:27;5.00;89.30
46816;DHT22;32787;53.316;8.670;2023-04-01T18:57:12;5.00;89.50
46816;DHT22;32787;53.316;8.670;2023-04-01T18:59:39;5.00;89.40
46816;DHT22;32787;53.316;8.670;2023-04-01T19:05:29;5.00;88.40
46816;DHT22;32787;53.316;8.670;2023-04-01T19:08:12;4.90;88.70
46816;DHT22;32787;53.316;8.670;2023-04-01T19:27:03;4.90;88.00
46816;DHT22;32787;53.316;8.670;2023-04-01T19:30:25;4.90;87.50
46816;DHT22;32787;53.316;8.670;2023-04-01T19:35:36;4.90;88.00
46816;DHT22;32787;53.316;8.670;2023-04-01T19:44:02;4.90;87.30
46816;DHT22;32787;53.316;8.670;2023-04-01T19:57:27;4.80;87.90
46816;DHT22;32787;53.316;8.670;2023-04-01T20:02:38;4.70;88.30
46816;DHT22;32787;53.316;8.670;2023-04-01T20:10:56;4.70;88.20
46816;DHT22;32787;53.316;8.670;2023-04-01T20:16:06;4.60;88.00
46816;DHT22;32787;53.316;8.670;2023-04-01T20:21:42;4.50;87.90
46816;DHT22;32787;53.316;8.670;2023-04-01T20:24:22;4.50;88.00
46816;DHT22;32787;53.316;8.670;2023-04-01T20:27:03;4.50;87.70
46816;DHT22;32787;53.316;8.670;2023-04-01T20:35:36;4.40;87.70
46816;DHT22;32787;53.316;8.670;2023-04-01T20:41:45;4.40;88.00
46816;DHT22;32787;53.316;8.670;2023-04-01T20:58:08;4.30;87.20
46816;DHT22;32787;53.316;8.670;2023-04-01T21:11:18;3.90;85.50
46816;DHT22;32787;53.316;8.670;2023-04-01T21:14:16;3.90;84.80
46816;DHT22;32787;53.316;8.670;2023-04-01T21:24:55;3.70;85.70
46816;DHT22;32787;53.316;8.670;2023-04-01T21:27:39;3.60;86.00
46816;DHT22;32787;53.316;8.670;2023-04-01T21:44:11;3.40;85.80
46816;DHT22;32787;53.316;8.670;2023-04-01T22:00:29;3.10;85.10
46816;DHT22;32787;53.316;8.670;2023-04-01T22:03:03;3.10;84.80
46816;DHT22;32787;53.316;8.670;2023-04-01T22:06:17;3.10;84.00
46816;DHT22;32787;53.316;8.670;2023-04-01T22:09:02;3.10;84.00
46816;DHT22;32787;53.316;8.670;2023-04-01T22:11:40;3.00;84.10
46816;DHT22;32787;53.316;8.670;2023-04-01T22:17:03;2.90;84.20
46816;DHT22;32787;53.316;8.670;2023-04-01T22:19:53;2.90;84.50
46816;DHT22;32787;53.316;8.670;2023-04-01T22:22:52;2.90;84.50
46816;DHT22;32787;53.316;8.670;2023-04-01T22:28:11;2.80;84.70
46816;DHT22;32787;53.316;8.670;2023-04-01T22:30:51;2.60;85.40
46816;DHT22;32787;53.316;8.670;2023-04-01T22:41:56;2.60;85.40
46816;DHT22;32787;53.316;8.670;2023-04-01T22:47:16;2.40;86.40
46816;DHT22;32787;53.316;8.670;2023-04-01T22:49:58;2.40;86.30
46816;DHT22;32787;53.316;8.670;2023-04-01T22:52:43;2.40;86.80
46816;DHT22;32787;53.316;8.670;2023-04-01T22:55:17;2.30;87.10
46816;DHT22;32787;53.316;8.670;2023-04-01T22:58:09;2.30;87.00
46816;DHT22;32787;53.316;8.670;2023-04-01T23:00:41;2.20;86.80
46816;DHT22;32787;53.316;8.670;2023-04-01T23:03:10;2.20;87.10
46816;DHT22;32787;53.316;8.670;2023-04-01T23:05:53;2.10;86.80
46816;DHT22;32787;53.316;8.670;2023-04-01T23:08:41;2.20;86.30
46816;DHT22;32787;53.316;8.670;2023-04-01T23:11:18;2.10;86.20
46816;DHT22;32787;53.316;8.670;2023-04-01T23:14:00;2.00;86.40
46816;DHT22;32787;53.316;8.670;2023-04-01T23:16:35;2.10;86.00
46816;DHT22;32787;53.316;8.670;2023-04-01T23:19:23;2.00;86.10
46816;DHT22;32787;53.316;8.670;2023-04-01T23:21:58;2.00;86.00
46816;DHT22;32787;53.316;8.670;2023-04-01T23:24:40;1.90;86.30
46816;DHT22;32787;53.316;8.670;2023-04-01T23:27:12;1.90;86.10
46816;DHT22;32787;53.316;8.670;2023-04-01T23:29:42;1.90;86.20
46816;DHT22;32787;53.316;8.670;2023-04-01T23:32:16;1.90;86.00
46816;DHT22;32787;53.316;8.670;2023-04-01T23:35:11;1.80;86.00
46816;DHT22;32787;53.316;8.670;2023-04-01T23:37:41;1.80;85.90
46816;DHT22;32787;53.316;8.670;2023-04-01T23:40:12;1.70;86.00
46816;DHT22;32787;53.316;8.670;2023-04-01T23:42:40;1.70;86.10
46816;DHT22;32787;53.316;8.670;2023-04-01T23:45:15;1.60;86.50
46816;DHT22;32787;53.316;8.670;2023-04-01T23:47:48;1.50;86.70
46816;DHT22;32787;53.316;8.670;2023-04-01T23:50:20;1.50;87.00
46816;DHT22;32787;53.316;8.670;2023-04-01T23:53:17;1.60;86.50
46816;DHT22;32787;53.316;8.670;2023-04-01T23:55:43;1.60;86.90
